createdAt,value
2023-02-28T00:00:19.713Z,-0.79
2023-02-28T00:03:41.608Z,-0.77
2023-02-28T00:07:03.542Z,-0.76
2023-02-28T00:10:30.883Z,-0.80
2023-02-28T00:13:53.916Z,-0.85
2023-02-28T00:17:22.004Z,-0.95
2023-02-28T00:20:44.955Z,-0.92
2023-02-28T00:24:08.346Z,-0.86
2023-02-28T00:27:30.702Z,-0.84
2023-02-28T00:30:52.691Z,-0.79
2023-02-28T00:34:16.671Z,-0.82
2023-02-28T00:37:40.805Z,-0.96
2023-02-28T00:41:06.129Z,-0.75
2023-02-28T00:44:28.096Z,-0.87
2023-02-28T00:47:50.844Z,-0.95
2023-02-28T00:51:13.729Z,-0.87
2023-02-28T00:54:35.788Z,-0.86
2023-02-28T00:57:57.689Z,-0.79
2023-02-28T01:01:21.857Z,-0.75
2023-02-28T01:04:50.728Z,-0.79
2023-02-28T01:08:15.336Z,-0.72
2023-02-28T01:11:37.441Z,-0.70
2023-02-28T01:14:59.495Z,-0.72
2023-02-28T01:18:22.794Z,-1.11
2023-02-28T01:21:44.618Z,-1.12
2023-02-28T01:25:09.064Z,-1.31
2023-02-28T01:28:31.026Z,-1.29
2023-02-28T01:31:54.973Z,-1.17
2023-02-28T01:35:17.857Z,-1.21
2023-02-28T01:38:40.336Z,-1.27
2023-02-28T01:42:02.237Z,-1.31
2023-02-28T01:45:30.856Z,-1.01
2023-02-28T01:49:01.640Z,-0.91
2023-02-28T01:52:37.412Z,-0.95
2023-02-28T01:56:01.363Z,-0.95
2023-02-28T02:00:01.459Z,-0.83
2023-02-28T02:03:23.373Z,-0.95
2023-02-28T02:06:48.975Z,-0.89
2023-02-28T02:10:31.716Z,-0.91
2023-02-28T02:14:22.476Z,-0.99
2023-02-28T02:17:52.720Z,-0.99
2023-02-28T02:21:43.417Z,-1.00
2023-02-28T02:25:25.022Z,-0.97
2023-02-28T02:29:22.793Z,-1.01
2023-02-28T02:33:29.676Z,-1.02
2023-02-28T02:37:42.006Z,-1.10
2023-02-28T02:41:16.806Z,-1.17
2023-02-28T02:44:55.007Z,-1.37
2023-02-28T02:48:25.438Z,-1.10
2023-02-28T02:51:50.479Z,-1.22
2023-02-28T02:55:30.579Z,-1.23
2023-02-28T02:59:01.150Z,-1.15
2023-02-28T03:02:26.953Z,-1.20
2023-02-28T03:05:52.207Z,-1.25
2023-02-28T03:09:15.358Z,-1.28
2023-02-28T03:12:56.765Z,-1.34
2023-02-28T03:16:52.351Z,-1.27
2023-02-28T03:20:36.001Z,-1.43
2023-02-28T03:24:30.984Z,-1.44
2023-02-28T03:28:09.688Z,-1.50
2023-02-28T03:31:42.204Z,-1.43
2023-02-28T03:35:24.364Z,-1.34
2023-02-28T03:39:07.983Z,-1.36
2023-02-28T03:42:36.534Z,-1.40
2023-02-28T03:46:07.000Z,-1.43
2023-02-28T03:49:46.647Z,-1.51
2023-02-28T03:53:33.275Z,-1.48
2023-02-28T03:57:12.814Z,-1.59
2023-02-28T04:00:41.235Z,-1.52
2023-02-28T04:04:05.860Z,-1.53
2023-02-28T04:07:31.791Z,-1.60
2023-02-28T04:11:24.916Z,-1.50
2023-02-28T04:14:46.800Z,-1.53
2023-02-28T04:18:09.809Z,-1.60
2023-02-28T04:21:47.910Z,-1.62
2023-02-28T04:25:09.739Z,-1.54
2023-02-28T04:28:31.526Z,-1.61
2023-02-28T04:31:54.558Z,-1.72
2023-02-28T04:35:16.700Z,-1.57
2023-02-28T04:38:40.090Z,-1.61
2023-02-28T04:42:01.998Z,-1.55
2023-02-28T04:45:23.830Z,-1.58
2023-02-28T04:48:45.836Z,-1.66
2023-02-28T04:52:14.157Z,-1.65
2023-02-28T04:55:44.243Z,-1.62
2023-02-28T04:59:07.197Z,-1.63
2023-02-28T05:02:29.030Z,-1.70
2023-02-28T05:05:53.928Z,-1.64
2023-02-28T05:09:17.748Z,-1.63
2023-02-28T05:12:39.811Z,-1.62
2023-02-28T05:16:03.687Z,-1.64
2023-02-28T05:19:25.598Z,-1.71
2023-02-28T05:22:48.729Z,-1.71
2023-02-28T05:26:15.845Z,-1.73
2023-02-28T05:29:42.524Z,-1.75
2023-02-28T05:33:13.156Z,-1.77
2023-02-28T05:36:37.497Z,-1.73
2023-02-28T05:40:01.616Z,-1.77
2023-02-28T05:43:25.145Z,-1.78
2023-02-28T05:46:49.100Z,-1.87
2023-02-28T05:50:11.517Z,-1.81
2023-02-28T05:53:35.367Z,-1.84
2023-02-28T05:56:57.259Z,-1.93
2023-02-28T06:00:19.765Z,-1.91
2023-02-28T06:03:43.707Z,-1.89
2023-02-28T06:07:05.579Z,-1.92
2023-02-28T06:10:27.469Z,-2.01
2023-02-28T06:13:49.538Z,-2.01
2023-02-28T06:17:11.495Z,-2.03
2023-02-28T06:20:34.290Z,-2.00
2023-02-28T06:23:58.434Z,-1.92
2023-02-28T06:27:21.497Z,-2.16
2023-02-28T06:30:45.595Z,-2.23
2023-02-28T06:34:15.241Z,-1.88
2023-02-28T06:37:44.918Z,-1.80
2023-02-28T06:41:11.647Z,-2.06
2023-02-28T06:44:35.997Z,-2.19
2023-02-28T06:47:59.374Z,-2.18
2023-02-28T06:51:23.555Z,-1.87
2023-02-28T06:54:46.637Z,-2.10
2023-02-28T06:58:19.858Z,-1.75
2023-02-28T07:01:48.705Z,-1.99
2023-02-28T07:05:10.695Z,-1.71
2023-02-28T07:08:37.058Z,-1.62
2023-02-28T07:11:59.018Z,-1.48
2023-02-28T07:15:20.907Z,-1.64
2023-02-28T07:18:49.383Z,-1.58
2023-02-28T07:22:13.725Z,-1.33
2023-02-28T07:25:37.406Z,-1.56
2023-02-28T07:28:59.188Z,-1.07
2023-02-28T07:32:21.352Z,-0.98
2023-02-28T07:35:43.642Z,-0.77
2023-02-28T07:39:07.453Z,-0.64
2023-02-28T07:42:30.240Z,-0.36
2023-02-28T07:45:53.063Z,-0.25
2023-02-28T07:49:14.866Z,-0.04
2023-02-28T07:52:38.411Z,0.19
2023-02-28T07:56:02.898Z,0.31
2023-02-28T07:59:24.839Z,0.55
2023-02-28T08:02:46.721Z,0.68
2023-02-28T08:06:21.243Z,0.77
2023-02-28T08:09:45.716Z,0.99
2023-02-28T08:13:07.630Z,1.22
2023-02-28T08:16:30.552Z,1.30
2023-02-28T08:19:54.488Z,1.54
2023-02-28T08:23:16.651Z,1.49
2023-02-28T08:26:38.559Z,1.55
2023-02-28T08:30:00.388Z,1.70
2023-02-28T08:33:27.718Z,1.67
2023-02-28T08:36:51.554Z,1.56
2023-02-28T08:40:18.975Z,1.68
2023-02-28T08:43:41.931Z,1.84
2023-02-28T08:47:04.026Z,2.08
2023-02-28T08:50:25.889Z,2.02
2023-02-28T08:53:50.228Z,1.88
2023-02-28T08:57:13.062Z,1.97
2023-02-28T09:00:37.578Z,1.98
2023-02-28T09:04:13.268Z,2.15
2023-02-28T09:07:37.441Z,2.39
2023-02-28T09:11:03.492Z,2.60
2023-02-28T09:14:25.557Z,2.77
2023-02-28T09:17:48.654Z,2.79
2023-02-28T09:21:15.138Z,2.85
2023-02-28T09:24:38.513Z,2.79
2023-02-28T09:28:06.286Z,2.85
2023-02-28T09:31:35.015Z,2.58
2023-02-28T09:34:56.815Z,2.53
2023-02-28T09:38:23.792Z,2.87
2023-02-28T09:41:51.110Z,2.89
2023-02-28T09:45:31.011Z,3.16
2023-02-28T09:48:56.953Z,3.27
2023-02-28T09:52:35.875Z,3.22
2023-02-28T09:56:08.619Z,3.27
2023-02-28T10:00:02.841Z,3.09
2023-02-28T10:04:05.773Z,3.32
2023-02-28T10:07:40.539Z,3.50
2023-02-28T10:11:08.606Z,3.07
2023-02-28T10:14:34.744Z,3.00
2023-02-28T10:18:13.931Z,3.20
2023-02-28T10:22:00.862Z,3.41
2023-02-28T10:25:30.394Z,3.05
2023-02-28T10:28:54.037Z,2.99
2023-02-28T10:32:25.275Z,3.10
2023-02-28T10:35:51.553Z,3.05
2023-02-28T10:39:45.205Z,3.15
2023-02-28T10:43:18.145Z,3.09
2023-02-28T10:46:43.368Z,2.82
2023-02-28T10:50:28.570Z,3.19
2023-02-28T10:54:03.862Z,3.34
2023-02-28T10:57:25.872Z,3.26
2023-02-28T11:00:48.177Z,3.50
2023-02-28T11:04:33.661Z,3.59
2023-02-28T11:08:20.371Z,3.88
2023-02-28T11:11:48.923Z,3.93
2023-02-28T11:15:28.018Z,4.39
2023-02-28T11:18:52.920Z,4.55
2023-02-28T11:22:46.111Z,3.83
2023-02-28T11:26:11.913Z,3.59
2023-02-28T11:29:37.397Z,3.71
2023-02-28T11:32:59.501Z,4.28
2023-02-28T11:36:31.342Z,4.77
2023-02-28T11:39:56.752Z,4.68
2023-02-28T11:43:24.431Z,4.42
2023-02-28T11:46:55.485Z,4.36
2023-02-28T11:50:44.617Z,4.65
2023-02-28T11:54:25.554Z,4.71
2023-02-28T11:58:09.291Z,4.36
2023-02-28T12:01:55.348Z,3.66
2023-02-28T12:05:50.858Z,4.21
2023-02-28T12:09:54.596Z,4.45
2023-02-28T12:13:26.162Z,5.34
2023-02-28T12:17:42.187Z,5.73
2023-02-28T12:21:38.348Z,5.25
2023-02-28T12:25:57.084Z,5.34
2023-02-28T12:29:35.023Z,4.36
2023-02-28T12:33:22.279Z,4.64
2023-02-28T12:36:54.499Z,4.51
2023-02-28T12:40:27.377Z,4.65
2023-02-28T12:44:11.178Z,4.81
2023-02-28T12:47:35.073Z,5.15
2023-02-28T12:50:58.358Z,4.84
2023-02-28T12:54:59.257Z,5.38
2023-02-28T12:58:51.041Z,5.22
2023-02-28T13:02:44.674Z,5.16
2023-02-28T13:06:43.269Z,5.03
2023-02-28T13:10:08.585Z,5.10
2023-02-28T13:13:32.645Z,4.76
2023-02-28T13:17:26.903Z,4.56
2023-02-28T13:20:51.280Z,4.51
2023-02-28T13:24:35.035Z,4.38
2023-02-28T13:28:01.671Z,4.23
2023-02-28T13:31:23.604Z,4.21
2023-02-28T13:35:39.101Z,4.27
2023-02-28T13:39:56.612Z,4.66
2023-02-28T13:43:25.301Z,4.89
2023-02-28T13:46:53.926Z,5.37
2023-02-28T13:50:41.058Z,5.05
2023-02-28T13:54:21.875Z,5.02
2023-02-28T13:58:10.237Z,5.22
2023-02-28T14:02:03.779Z,5.05
2023-02-28T14:05:34.469Z,4.68
2023-02-28T14:09:26.567Z,4.58
2023-02-28T14:12:57.438Z,4.46
2023-02-28T14:16:27.364Z,4.57
2023-02-28T14:19:51.154Z,4.86
2023-02-28T14:23:50.370Z,5.07
2023-02-28T14:27:38.521Z,5.17
2023-02-28T14:31:31.171Z,5.24
2023-02-28T14:35:21.292Z,5.17
2023-02-28T14:39:16.009Z,5.02
2023-02-28T14:42:42.556Z,4.81
2023-02-28T14:46:08.060Z,4.82
2023-02-28T14:49:44.814Z,4.62
2023-02-28T14:53:20.550Z,4.78
2023-02-28T14:56:44.630Z,4.73
2023-02-28T15:00:49.391Z,4.92
2023-02-28T15:04:34.013Z,4.87
2023-02-28T15:08:17.044Z,4.86
2023-02-28T15:11:50.940Z,4.80
2023-02-28T15:15:19.508Z,4.78
2023-02-28T15:18:49.179Z,4.67
2023-02-28T15:22:29.874Z,4.33
2023-02-28T15:25:53.808Z,4.27
2023-02-28T15:33:12.346Z,4.56
2023-02-28T15:36:38.095Z,4.65
2023-02-28T15:40:36.552Z,4.60
2023-02-28T15:44:27.903Z,4.56
2023-02-28T15:47:52.683Z,4.54
2023-02-28T15:51:30.411Z,4.58
2023-02-28T15:54:53.143Z,4.59
2023-02-28T15:58:23.020Z,4.60
2023-02-28T16:01:47.285Z,4.49
2023-02-28T16:05:36.239Z,4.51
2023-02-28T16:08:58.248Z,4.47
2023-02-28T16:12:23.983Z,4.38
2023-02-28T16:15:45.899Z,4.41
2023-02-28T16:19:13.884Z,4.36
2023-02-28T16:22:35.733Z,4.26
2023-02-28T16:26:06.347Z,4.27
2023-02-28T16:29:36.754Z,4.21
2023-02-28T16:32:59.809Z,3.85
2023-02-28T16:36:26.172Z,3.71
2023-02-28T16:39:51.944Z,3.93
2023-02-28T16:43:25.699Z,3.95
2023-02-28T16:46:49.607Z,3.87
2023-02-28T16:50:33.566Z,3.72
2023-02-28T16:53:55.568Z,3.67
2023-02-28T16:57:24.100Z,3.63
2023-02-28T17:00:46.133Z,3.45
2023-02-28T17:04:12.360Z,3.39
2023-02-28T17:07:35.361Z,3.26
2023-02-28T17:10:57.271Z,3.25
2023-02-28T17:14:19.096Z,3.19
2023-02-28T17:17:42.987Z,3.11
2023-02-28T17:21:15.132Z,2.65
2023-02-28T17:24:37.172Z,2.57
2023-02-28T17:27:59.014Z,2.44
2023-02-28T17:31:21.057Z,2.76
2023-02-28T17:34:48.924Z,2.49
2023-02-28T17:38:19.578Z,2.52
2023-02-28T17:41:42.903Z,2.39
2023-02-28T17:45:05.177Z,2.14
2023-02-28T17:48:27.110Z,2.27
2023-02-28T17:51:51.347Z,2.12
2023-02-28T17:55:23.274Z,2.07
2023-02-28T17:58:45.273Z,2.08
2023-02-28T18:02:08.545Z,1.98
2023-02-28T18:05:33.062Z,1.90
2023-02-28T18:08:56.302Z,1.92
2023-02-28T18:12:18.142Z,1.92
2023-02-28T18:15:40.721Z,1.86
2023-02-28T18:19:14.770Z,1.84
2023-02-28T18:22:40.271Z,1.86
2023-02-28T18:26:09.527Z,1.93
2023-02-28T18:29:32.688Z,1.85
2023-02-28T18:32:59.992Z,1.84
2023-02-28T18:36:28.729Z,1.80
2023-02-28T18:39:51.823Z,1.66
2023-02-28T18:43:14.694Z,1.49
2023-02-28T18:46:37.881Z,1.34
2023-02-28T18:50:02.037Z,1.37
2023-02-28T18:53:24.202Z,1.30
2023-02-28T18:56:47.067Z,1.33
2023-02-28T19:00:22.436Z,1.33
2023-02-28T19:03:46.511Z,1.37
2023-02-28T19:07:08.407Z,1.33
2023-02-28T19:10:30.997Z,1.27
2023-02-28T19:13:53.068Z,1.15
2023-02-28T19:17:16.004Z,1.06
2023-02-28T19:20:40.019Z,1.12
2023-02-28T19:24:04.167Z,1.03
2023-02-28T19:27:27.976Z,1.15
2023-02-28T19:30:52.905Z,1.07
2023-02-28T19:34:15.925Z,0.99
2023-02-28T19:37:39.975Z,0.95
2023-02-28T19:41:11.766Z,1.00
2023-02-28T19:44:33.868Z,1.00
2023-02-28T19:47:56.442Z,0.97
2023-02-28T19:54:46.143Z,0.91
2023-02-28T19:58:10.667Z,0.90
2023-02-28T20:01:32.475Z,0.85
2023-02-28T20:04:58.711Z,0.87
2023-02-28T20:08:23.562Z,0.71
2023-02-28T20:11:46.352Z,0.69
2023-02-28T20:15:09.160Z,0.74
2023-02-28T20:18:31.003Z,0.67
2023-02-28T20:21:52.945Z,0.68
2023-02-28T20:25:15.288Z,0.60
2023-02-28T20:28:37.903Z,0.26
2023-02-28T20:31:59.881Z,0.24
2023-02-28T20:35:21.853Z,0.15
2023-02-28T20:38:45.130Z,0.15
2023-02-28T20:42:08.048Z,0.59
2023-02-28T20:45:30.762Z,0.16
2023-02-28T20:48:52.980Z,0.10
2023-02-28T20:52:15.931Z,0.05
2023-02-28T20:55:37.921Z,0.06
2023-02-28T20:59:00.203Z,-0.08
2023-02-28T21:02:22.324Z,-0.10
2023-02-28T21:05:45.258Z,-0.04
2023-02-28T21:09:14.455Z,0.09
2023-02-28T21:12:36.335Z,0.10
2023-02-28T21:16:08.821Z,0.09
2023-02-28T21:19:31.132Z,0.00
2023-02-28T21:23:00.192Z,-0.06
2023-02-28T21:26:24.951Z,0.06
2023-02-28T21:29:46.979Z,0.01
2023-02-28T21:33:17.340Z,0.03
2023-02-28T21:36:45.430Z,0.14
2023-02-28T21:40:08.438Z,0.37
2023-02-28T21:43:30.255Z,0.53
2023-02-28T21:46:56.724Z,0.53
2023-02-28T21:50:18.657Z,0.41
2023-02-28T21:53:42.746Z,0.57
2023-02-28T21:57:04.776Z,0.10
2023-02-28T22:00:27.020Z,0.17
2023-02-28T22:03:52.492Z,0.18
2023-02-28T22:07:18.312Z,0.29
2023-02-28T22:10:42.140Z,0.54
2023-02-28T22:14:04.126Z,0.16
2023-02-28T22:17:29.050Z,0.15
2023-02-28T22:20:56.344Z,0.15
2023-02-28T22:24:21.859Z,-0.05
2023-02-28T22:27:43.901Z,0.05
2023-02-28T22:31:22.816Z,0.05
2023-02-28T22:34:45.706Z,0.59
2023-02-28T22:38:11.189Z,0.37
2023-02-28T22:41:33.491Z,0.18
2023-02-28T22:44:55.344Z,0.14
2023-02-28T22:48:19.405Z,0.24
2023-02-28T22:51:43.264Z,0.27
2023-02-28T22:55:05.965Z,0.31
2023-02-28T22:58:28.216Z,0.35
2023-02-28T23:01:50.071Z,0.21
2023-02-28T23:05:13.333Z,0.23
2023-02-28T23:08:36.186Z,0.23
2023-02-28T23:11:57.990Z,0.48
2023-02-28T23:15:21.816Z,0.61
2023-02-28T23:18:43.840Z,0.63
2023-02-28T23:22:05.909Z,0.17
2023-02-28T23:25:27.866Z,0.19
2023-02-28T23:28:49.996Z,0.14
2023-02-28T23:32:13.110Z,0.10
2023-02-28T23:35:34.990Z,0.05
2023-02-28T23:38:56.877Z,0.06
2023-02-28T23:42:18.711Z,0.05
2023-02-28T23:45:46.467Z,0.11
2023-02-28T23:49:19.180Z,0.10
2023-02-28T23:52:40.965Z,0.02
2023-02-28T23:56:05.638Z,0.04
2023-02-28T23:59:28.862Z,-0.09
